Time;durP1;ratioP1;P1;durP2;ratioP2;P2;SDS_P1;SDS_P2;PMS_P1;PMS_P2;Temp;Humidity;BMP_temperature;BMP_pressure;BME280_temperature;BME280_humidity;BME280_pressure;Samples;Min_cycle;Max_cycle;Signal;HPM_P1;HPM_P2
2022/08/26 00:00:35;;;;;;;;;2.00;2.00;;;;;25.46;51.30;101123.00;2088340;27;48486;-50
2022/08/26 00:01:36;;;;;;;;;15.50;15.50;;;;;25.45;51.32;101117.69;2104674;28;47603;-54
2022/08/26 00:02:36;;;;;;;;;4.00;4.00;;;;;25.44;51.52;101114.09;2106457;27;47911;-53
2022/08/26 00:03:38;;;;;;;;;3.00;3.00;;;;;25.44;51.12;101118.66;2104685;28;47575;-50
2022/08/26 00:04:39;;;;;;;;;2.00;2.00;;;;;25.44;51.36;101122.25;2105929;27;47831;-54
2022/08/26 00:05:40;;;;;;;;;2.80;2.80;;;;;25.43;51.34;101114.22;2096668;28;47224;-52
2022/08/26 00:06:41;;;;;;;;;3.20;3.20;;;;;25.41;51.04;101118.88;2095817;28;47344;-51
2022/08/26 00:07:41;;;;;;;;;2.00;2.00;;;;;25.39;51.36;101115.41;2096960;28;47924;-53
2022/08/26 00:08:42;;;;;;;;;3.00;3.00;;;;;25.35;51.14;101117.50;2106343;27;47678;-54
2022/08/26 00:09:42;;;;;;;;;3.75;3.75;;;;;25.35;51.35;101119.38;2105082;28;47755;-52
2022/08/26 00:10:43;;;;;;;;;1.00;1.00;;;;;25.33;51.51;101110.47;2105954;27;47953;-53
2022/08/26 00:11:44;;;;;;;;;3.25;2.50;;;;;25.31;51.33;101117.88;2104973;28;46961;-54
2022/08/26 00:12:44;;;;;;;;;2.60;2.60;;;;;25.30;51.72;101110.72;2097110;28;47619;-52
2022/08/26 00:13:45;;;;;;;;;3.50;2.50;;;;;25.31;51.28;101116.03;2096728;28;47664;-52
2022/08/26 00:14:45;;;;;;;;;3.25;3.00;;;;;25.31;51.95;101116.03;2104779;28;47281;-49
2022/08/26 00:15:46;;;;;;;;;2.50;2.50;;;;;25.32;51.41;101112.31;2109775;27;48065;-51
2022/08/26 00:16:46;;;;;;;;;2.25;2.25;;;;;25.30;51.66;101114.31;2111883;27;47824;-50
2022/08/26 00:17:47;;;;;;;;;4.00;2.75;;;;;25.30;51.32;101114.31;2104525;28;47374;-51
2022/08/26 00:18:48;;;;;;;;;2.80;1.40;;;;;25.30;51.81;101113.44;2097209;28;46194;-51
2022/08/26 00:19:49;;;;;;;;;3.00;2.75;;;;;25.29;51.86;101115.28;2095857;28;47790;-49
2022/08/26 00:20:50;;;;;;;;;2.75;2.75;;;;;25.27;52.07;101119.94;2105690;27;47306;-54
2022/08/26 00:21:50;;;;;;;;;2.80;2.80;;;;;25.27;51.49;101111.78;2105605;27;47572;-54
2022/08/26 00:22:51;;;;;;;;;3.00;3.00;;;;;25.28;51.73;101123.53;2104843;28;47783;-52
2022/08/26 00:23:51;;;;;;;;;3.75;3.00;;;;;25.27;52.20;101119.09;2105523;27;47422;-53
2022/08/26 00:24:52;;;;;;;;;3.00;2.75;;;;;25.26;51.94;101114.63;2105748;27;47567;-52
2022/08/26 00:25:52;;;;;;;;;3.75;3.75;;;;;25.27;51.66;101121.78;2104867;28;47583;-50
2022/08/26 00:26:53;;;;;;;;;2.25;2.25;;;;;25.27;51.99;101121.78;2105873;27;47090;-50
2022/08/26 00:27:53;;;;;;;;;2.00;2.00;;;;;25.28;51.70;101118.97;2104990;28;47559;-52
2022/08/26 00:28:53;;;;;;;;;1.75;1.75;;;;;25.32;51.72;101120.47;2096941;28;47340;-53
2022/08/26 00:29:54;;;;;;;;;1.50;1.50;;;;;25.35;52.27;101119.38;2096384;28;47340;-53
2022/08/26 00:30:54;;;;;;;;;3.25;2.50;;;;;25.39;51.83;101129.00;2102201;28;47329;-53
2022/08/26 00:31:55;;;;;;;;;3.00;3.00;;;;;25.40;51.42;101125.31;2103046;27;47297;-51
2022/08/26 00:32:56;;;;;;;;;3.75;2.50;;;;;25.42;51.73;101124.22;2105712;27;46928;-51
2022/08/26 00:33:58;;;;;;;;;1.80;1.80;;;;;25.42;51.66;101126.94;2104436;28;47920;-51
2022/08/26 00:34:58;;;;;;;;;5.00;3.00;;;;;25.42;51.71;101123.34;2105616;27;47846;-52
2022/08/26 00:36:00;;;;;;;;;2.50;2.50;;;;;25.41;51.63;101122.50;2104505;28;47275;-52
2022/08/26 00:37:00;;;;;;;;;2.20;2.20;;;;;25.42;51.98;101128.78;2105340;27;48387;-55
2022/08/26 00:38:01;;;;;;;;;2.00;2.00;;;;;25.43;51.48;101125.94;2106098;27;47967;-53
2022/08/26 00:39:03;;;;;;;;;2.60;2.60;;;;;25.44;51.83;101126.81;2104914;28;47612;-50
2022/08/26 00:40:10;;;;;;;;;1.40;1.40;;;;;25.43;51.37;101127.81;2105858;27;47371;-53
2022/08/26 00:41:11;;;;;;;;;2.60;2.60;;;;;25.43;52.02;101128.66;2105200;27;46488;-51
2022/08/26 00:42:12;;;;;;;;;2.00;2.00;;;;;25.45;52.09;101131.25;2104755;28;47838;-54
2022/08/26 00:43:13;;;;;;;;;4.00;4.00;;;;;25.46;51.48;101128.44;2105719;27;47223;-51
2022/08/26 00:44:14;;;;;;;;;3.20;3.20;;;;;25.50;51.49;101127.19;2096846;28;47785;-54
2022/08/26 00:45:16;;;;;;;;;2.25;2.00;;;;;25.50;51.69;101129.91;2103840;28;48003;-53
2022/08/26 00:46:22;;;;;;;;;2.40;2.40;;;;;25.51;51.57;101128.91;2109381;27;47605;-51
2022/08/26 00:47:32;;;;;;;;;3.40;2.20;;;;;25.49;51.36;101128.19;2104583;27;47582;-51
2022/08/26 00:48:35;;;;;;;;;3.00;3.00;;;;;25.47;51.72;101127.44;2104297;28;47807;-52
2022/08/26 00:49:40;;;;;;;;;2.60;2.40;;;;;25.46;51.80;101133.00;2105388;27;47802;-51
2022/08/26 00:50:49;;;;;;;;;2.00;2.00;;;;;25.44;52.14;101133.13;2096181;28;47403;-53
2022/08/26 00:51:53;;;;;;;;;2.20;2.20;;;;;25.43;52.10;101134.09;2097271;28;47905;-52
2022/08/26 00:52:56;;;;;;;;;2.00;2.00;;;;;25.43;52.01;101134.09;2106292;27;47791;-52
2022/08/26 00:54:02;;;;;;;;;2.40;2.40;;;;;25.45;51.84;101137.56;2089190;28;47299;-49
2022/08/26 00:55:23;;;;;;;;;2.20;2.20;;;;;25.46;51.62;101133.84;2088263;28;47187;-52
2022/08/26 00:56:35;;;;;;;;;3.60;3.60;;;;;25.47;51.92;101132.88;2105690;27;47470;-51
2022/08/26 00:57:35;;;;;;;;;3.40;3.40;;;;;25.48;52.29;101128.31;2105314;27;47631;-48
2022/08/26 00:58:37;;;;;;;;;4.00;4.00;;;;;25.47;52.00;101134.72;2104933;28;47000;-52
2022/08/26 00:59:38;;;;;;;;;4.60;4.60;;;;;25.47;51.66;101132.88;2105624;27;48000;-50
2022/08/26 01:00:39;;;;;;;;;4.25;4.25;;;;;25.46;51.71;101133.00;2096295;28;47372;-53
2022/08/26 01:01:42;;;;;;;;;4.25;4.00;;;;;25.46;51.59;101130.28;2095703;28;47617;-52
2022/08/26 01:02:45;;;;;;;;;4.00;4.00;;;;;25.45;52.14;101134.84;2107092;27;47488;-50
2022/08/26 01:03:46;;;;;;;;;3.00;3.00;;;;;25.44;52.02;101133.13;2097661;28;47215;-52
2022/08/26 01:04:48;;;;;;;;;2.75;2.75;;;;;25.43;51.97;101133.25;2097199;27;47490;-51
2022/08/26 01:05:54;;;;;;;;;2.00;2.00;;;;;25.40;52.03;101131.59;2106560;27;47553;-49
2022/08/26 01:06:54;;;;;;;;;3.60;3.60;;;;;25.38;51.96;101128.13;2105962;27;47974;-52
2022/08/26 01:07:54;;;;;;;;;4.00;4.00;;;;;25.36;51.95;101134.69;2106830;27;47634;-48
2022/08/26 01:08:55;;;;;;;;;3.00;3.00;;;;;25.35;51.93;101132.94;2100004;28;46789;-52
2022/08/26 01:09:58;;;;;;;;;4.00;4.00;;;;;25.36;51.80;101140.13;2105262;28;47622;-48
2022/08/26 01:11:00;;;;;;;;;3.00;3.00;;;;;25.36;51.99;101131.97;2108361;27;47340;-52
2022/08/26 01:12:01;;;;;;;;;3.80;3.80;;;;;25.36;52.08;101137.41;2106816;27;45744;-52
2022/08/26 01:13:08;;;;;;;;;3.00;3.00;;;;;25.34;52.25;101136.66;2106146;28;48080;-50
2022/08/26 01:14:11;;;;;;;;;3.00;3.00;;;;;25.31;52.47;101131.47;2106657;27;47453;-50
2022/08/26 01:15:26;;;;;;;;;2.60;2.60;;;;;25.28;52.41;101129.81;2107252;27;48197;-52
2022/08/26 01:16:27;;;;;;;;;2.20;2.20;;;;;25.28;52.12;101142.53;2097175;28;47566;-48
2022/08/26 01:17:27;;;;;;;;;3.00;3.00;;;;;25.26;52.35;101125.50;2106199;27;47728;-50
2022/08/26 01:18:28;;;;;;;;;3.00;3.00;;;;;25.26;52.56;101130.94;2107187;27;47706;-51
2022/08/26 01:19:51;;;;;;;;;3.40;3.40;;;;;25.25;52.03;101132.78;2105838;28;48205;-50
2022/08/26 01:21:01;;;;;;;;;3.60;3.60;;;;;25.26;52.42;101129.09;2106746;27;47800;-54
2022/08/26 01:22:11;;;;;;;;;3.80;3.80;;;;;25.28;52.27;101127.09;2098059;28;47119;-49
2022/08/26 01:23:12;;;;;;;;;4.00;3.00;;;;;25.28;52.11;101124.41;2098048;28;47436;-48
2022/08/26 01:24:12;;;;;;;;;4.00;4.00;;;;;25.30;52.66;101129.75;2088464;28;47591;-53
2022/08/26 01:25:13;;;;;;;;;6.00;6.00;;;;;25.31;52.32;101123.31;2103310;27;47624;-52
2022/08/26 01:26:19;;;;;;;;;6.75;6.25;;;;;25.29;52.52;101126.16;2105620;28;48192;-51
2022/08/26 01:27:20;;;;;;;;;5.00;5.00;;;;;25.27;52.16;101127.22;2105195;27;48213;-53
2022/08/26 01:28:32;;;;;;;;;5.00;5.00;;;;;25.23;52.25;101121.19;2106586;27;48093;-50
2022/08/26 01:29:35;;;;;;;;;4.40;4.00;;;;;25.23;52.42;101121.19;2106623;27;48207;-53
2022/08/26 01:30:38;;;;;;;;;4.00;4.00;;;;;25.22;52.37;101124.88;2105978;27;48050;-52
2022/08/26 01:31:42;;;;;;;;;6.00;6.00;;;;;25.19;52.31;101126.00;2106612;27;47552;-51
2022/08/26 01:32:44;;;;;;;;;5.60;4.60;;;;;25.15;52.22;101124.47;2114258;27;47488;-52
2022/08/26 01:34:09;;;;;;;;;4.60;3.60;;;;;25.14;52.34;101125.44;2114349;27;47905;-49
2022/08/26 01:35:10;;;;;;;;;8.40;6.00;;;;;25.13;52.88;101121.00;2108055;27;47827;-50
2022/08/26 01:36:11;;;;;;;;;5.00;5.00;;;;;25.11;52.43;101135.69;2096855;28;47274;-49
2022/08/26 01:37:28;;;;;;;;;5.40;5.20;;;;;25.08;52.81;101134.09;2096590;28;46847;-53
2022/08/26 01:38:28;;;;;;;;;3.20;2.20;;;;;25.08;53.16;101133.22;2097869;28;47502;-52
2022/08/26 01:39:31;;;;;;;;;4.00;4.00;;;;;25.08;53.00;101133.22;2097385;28;47881;-49
2022/08/26 01:40:36;;;;;;;;;4.80;4.80;;;;;25.06;52.82;101132.47;2108708;27;47939;-51
2022/08/26 01:41:39;;;;;;;;;5.40;5.40;;;;;25.03;52.71;101121.81;2080965;28;47523;-51
2022/08/26 01:42:41;;;;;;;;;5.00;5.00;;;;;25.00;52.89;101128.31;2064483;28;47731;-51
2022/08/26 01:43:49;;;;;;;;;4.40;4.40;;;;;24.98;53.33;101129.44;2088336;28;47919;-51
2022/08/26 01:45:17;;;;;;;;;6.00;5.40;;;;;24.98;52.90;101126.72;2097455;28;47175;-52
2022/08/26 01:46:21;;;;;;;;;6.00;5.80;;;;;24.95;53.07;101134.09;2101551;28;48345;-51
2022/08/26 01:47:24;;;;;;;;;6.00;6.00;;;;;24.93;52.96;101127.06;2106032;27;47725;-54
2022/08/26 01:48:28;;;;;;;;;5.00;5.00;;;;;24.93;53.40;101127.06;2105698;28;47908;-48
2022/08/26 01:49:29;;;;;;;;;6.80;5.00;;;;;24.90;53.24;101128.16;2106758;27;47968;-52
2022/08/26 01:50:34;;;;;;;;;9.00;8.00;;;;;24.88;53.20;101124.69;2105955;28;45850;-51
2022/08/26 01:51:37;;;;;;;;;5.00;5.00;;;;;24.87;53.23;101122.09;2106093;27;47890;-49
2022/08/26 01:52:41;;;;;;;;;6.40;5.60;;;;;24.84;53.28;101127.75;2106537;27;46545;-54
2022/08/26 01:53:42;;;;;;;;;7.00;6.80;;;;;24.83;53.37;101126.88;2105541;28;47501;-54
2022/08/26 01:54:43;;;;;;;;;6.20;6.20;;;;;24.84;53.48;101127.75;2106524;27;47244;-53
2022/08/26 01:55:47;;;;;;;;;5.75;5.25;;;;;24.85;53.27;101126.75;2106479;27;46683;-50
2022/08/26 01:56:49;;;;;;;;;5.00;5.00;;;;;24.85;53.51;101122.19;2105545;28;47875;-51
2022/08/26 01:57:52;;;;;;;;;3.40;3.40;;;;;24.89;53.82;101128.25;2097664;28;47627;-52
2022/08/26 01:58:57;;;;;;;;;6.60;6.60;;;;;24.90;53.71;101130.00;2097591;27;47398;-50
2022/08/26 02:00:00;;;;;;;;;4.20;4.20;;;;;24.91;53.42;101129.91;2106025;27;47569;-51
2022/08/26 02:01:02;;;;;;;;;4.60;4.00;;;;;24.93;53.56;101129.78;2107397;27;48092;-49
2022/08/26 02:02:02;;;;;;;;;8.20;7.20;;;;;24.95;53.71;101127.81;2105353;28;47709;-52
2022/08/26 02:03:17;;;;;;;;;5.00;5.00;;;;;24.96;53.88;101126.81;2113860;27;47034;-53
2022/08/26 02:04:26;;;;;;;;;8.00;8.00;;;;;24.96;53.15;101132.25;2100502;28;47698;-52
2022/08/26 02:05:26;;;;;;;;;8.40;8.40;;;;;24.96;53.36;101134.97;2099576;27;47923;-50
2022/08/26 02:06:27;;;;;;;;;6.00;6.00;;;;;24.97;53.66;101138.56;2096878;28;47654;-52
2022/08/26 02:07:29;;;;;;;;;6.00;6.00;;;;;24.98;53.42;101134.84;2103506;27;47273;-52
2022/08/26 02:08:39;;;;;;;;;7.00;7.00;;;;;24.97;53.12;101134.00;2105859;28;48005;-54
2022/08/26 02:09:40;;;;;;;;;4.60;4.40;;;;;24.97;53.49;101135.84;2114356;27;47355;-49
2022/08/26 02:10:41;;;;;;;;;6.80;5.20;;;;;24.97;53.56;101139.41;2110396;27;47454;-49
2022/08/26 02:11:42;;;;;;;;;6.00;6.00;;;;;24.95;53.11;101139.53;2105915;28;47112;-52
2022/08/26 02:12:42;;;;;;;;;6.25;6.25;;;;;24.95;53.25;101141.38;2113440;27;46994;-54
2022/08/26 02:13:47;;;;;;;;;6.25;6.25;;;;;24.98;53.47;101137.56;2111137;27;47117;-54
2022/08/26 02:14:52;;;;;;;;;9.20;7.60;;;;;25.00;53.67;101136.47;2105700;28;47824;-52
2022/08/26 02:15:54;;;;;;;;;5.80;5.80;;;;;25.03;53.64;101146.25;2111957;27;47149;-52
2022/08/26 02:16:55;;;;;;;;;3.40;3.40;;;;;25.05;53.04;101152.47;2110840;27;47995;-52
2022/08/26 02:17:55;;;;;;;;;7.60;7.40;;;;;25.07;53.23;101151.38;2105359;28;48164;-52
2022/08/26 02:18:57;;;;;;;;;5.75;5.75;;;;;25.09;53.20;101149.38;2111635;27;47530;-51
2022/08/26 02:19:57;;;;;;;;;9.20;8.60;;;;;25.09;53.09;101145.81;2113907;27;47564;-53
2022/08/26 02:20:59;;;;;;;;;5.50;5.50;;;;;25.09;52.97;101143.09;2105470;27;47153;-50
2022/08/26 02:22:06;;;;;;;;;6.00;6.00;;;;;25.10;53.15;101148.41;2106349;27;47158;-53
2022/08/26 02:23:07;;;;;;;;;7.00;7.00;;;;;25.11;53.57;101150.13;2105680;27;47900;-53
2022/08/26 02:24:11;;;;;;;;;9.50;7.25;;;;;25.13;52.92;101148.16;2105972;27;47724;-53
2022/08/26 02:25:23;;;;;;;;;8.00;8.00;;;;;25.14;53.39;101149.91;2106269;27;47252;-52
2022/08/26 02:26:24;;;;;;;;;7.60;7.60;;;;;25.15;53.57;101153.47;2097641;28;47624;-56
2022/08/26 02:27:32;;;;;;;;;6.80;6.40;;;;;25.16;53.29;101149.81;2096084;28;47466;-52
2022/08/26 02:28:38;;;;;;;;;8.00;7.00;;;;;25.15;53.31;101154.34;2106469;27;47571;-49
2022/08/26 02:29:43;;;;;;;;;10.40;7.80;;;;;25.14;52.60;101152.59;2106516;27;48267;-50
2022/08/26 02:30:45;;;;;;;;;8.40;7.80;;;;;25.11;52.88;101150.13;2103814;28;47537;-52
2022/08/26 02:31:47;;;;;;;;;5.40;5.40;;;;;25.07;53.00;101150.50;2094326;28;47735;-54
2022/08/26 02:32:48;;;;;;;;;6.00;6.00;;;;;25.06;52.98;101151.47;2097004;27;47594;-54
2022/08/26 02:33:48;;;;;;;;;7.00;7.00;;;;;25.06;53.15;101143.34;2106012;27;47666;-53
2022/08/26 02:34:49;;;;;;;;;10.00;10.00;;;;;25.06;53.14;101146.06;2106313;27;47673;-52
2022/08/26 02:35:49;;;;;;;;;7.50;7.50;;;;;25.04;53.44;101145.31;2105888;28;46527;-51
2022/08/26 02:36:50;;;;;;;;;8.00;7.50;;;;;25.03;53.14;101148.97;2097184;28;47239;-49
2022/08/26 02:37:51;;;;;;;;;8.75;8.75;;;;;25.01;53.60;101143.66;2097574;28;47674;-51
2022/08/26 02:38:52;;;;;;;;;9.60;8.20;;;;;24.98;53.17;101146.59;2105603;28;47296;-52
2022/08/26 02:39:52;;;;;;;;;5.25;3.50;;;;;24.94;53.41;101145.97;2097016;28;47251;-51
2022/08/26 02:40:53;;;;;;;;;6.50;6.50;;;;;24.93;53.29;101148.78;2097039;28;47887;-54
2022/08/26 02:41:54;;;;;;;;;11.00;9.75;;;;;24.92;53.29;101142.50;2105473;27;48278;-54
2022/08/26 02:42:55;;;;;;;;;9.25;9.25;;;;;24.92;53.23;101144.34;2109009;27;47722;-52
2022/08/26 02:43:55;;;;;;;;;9.00;9.00;;;;;24.92;53.60;101149.78;2113548;27;47398;-52
2022/08/26 02:44:55;;;;;;;;;7.00;7.00;;;;;24.91;53.31;101142.63;2107497;27;46572;-52
2022/08/26 02:45:56;;;;;;;;;9.00;9.00;;;;;24.91;53.41;101143.47;2106125;27;47742;-50
2022/08/26 02:46:57;;;;;;;;;7.75;7.75;;;;;24.92;53.89;101147.91;2105088;28;47262;-50
2022/08/26 02:47:59;;;;;;;;;9.25;9.25;;;;;24.92;53.53;101152.47;2106161;27;47641;-49
2022/08/26 02:49:00;;;;;;;;;11.00;10.60;;;;;24.92;53.72;101152.47;2086963;28;48039;-49
2022/08/26 02:50:00;;;;;;;;;9.75;9.25;;;;;24.88;53.88;101148.25;2087154;28;47480;-51
2022/08/26 02:51:01;;;;;;;;;5.75;5.75;;;;;24.86;53.40;101151.06;2106171;27;47750;-52
2022/08/26 02:52:02;;;;;;;;;7.80;7.80;;;;;24.86;53.87;101142.94;2096688;28;47102;-52
2022/08/26 02:53:03;;;;;;;;;11.00;10.00;;;;;24.88;54.01;101145.53;2097203;28;47155;-53
2022/08/26 02:54:06;;;;;;;;;9.80;9.80;;;;;24.88;53.86;101154.53;2106044;27;47462;-51
2022/08/26 02:55:07;;;;;;;;;9.25;8.50;;;;;24.88;53.71;101145.53;2096325;28;47220;-49
2022/08/26 02:56:08;;;;;;;;;7.20;7.20;;;;;24.89;53.51;101149.97;2097409;28;47492;-51
2022/08/26 02:57:10;;;;;;;;;9.50;8.25;;;;;24.90;53.75;101141.75;2105195;28;47883;-49
2022/08/26 02:58:10;;;;;;;;;9.80;9.80;;;;;24.90;54.01;101147.19;2106166;27;47890;-50
2022/08/26 02:59:14;;;;;;;;;10.00;9.00;;;;;24.91;53.71;101142.63;2106725;27;47940;-51
2022/08/26 03:00:15;;;;;;;;;8.00;8.00;;;;;24.92;53.99;101150.63;2105519;28;47417;-52
2022/08/26 03:01:35;;;;;;;;;9.40;9.40;;;;;24.93;53.99;101152.38;2112371;27;47430;-52
2022/08/26 03:02:36;;;;;;;;;9.80;9.80;;;;;24.94;53.51;101150.53;2119859;27;47423;-53
2022/08/26 03:03:36;;;;;;;;;12.75;12.75;;;;;24.94;53.78;101148.66;2121658;27;47604;-52
2022/08/26 03:04:38;;;;;;;;;10.00;10.00;;;;;24.92;53.70;101149.78;2106522;27;47609;-53
2022/08/26 03:05:38;;;;;;;;;7.60;7.60;;;;;24.88;53.63;101146.41;2106277;27;47273;-51
2022/08/26 03:06:39;;;;;;;;;11.00;10.00;;;;;24.88;53.55;101148.25;2104954;28;47154;-52
2022/08/26 03:07:40;;;;;;;;;7.25;6.00;;;;;24.89;53.83;101147.25;2106630;27;47401;-52
2022/08/26 03:08:40;;;;;;;;;11.25;11.25;;;;;24.90;53.82;101143.56;2106412;27;47918;-52
2022/08/26 03:09:40;;;;;;;;;13.00;10.00;;;;;24.91;54.04;101148.03;2105373;27;48377;-51
2022/08/26 03:10:41;;;;;;;;;12.00;11.00;;;;;24.90;53.49;101149.88;2106134;27;47224;-49
2022/08/26 03:11:41;;;;;;;;;7.75;7.75;;;;;24.91;53.36;101145.31;2105214;28;47281;-51
2022/08/26 03:12:44;;;;;;;;;10.25;9.75;;;;;24.93;54.04;101151.50;2106087;27;47306;-53
2022/08/26 03:13:45;;;;;;;;;8.20;8.20;;;;;24.92;53.67;101138.91;2108201;27;47465;-53
2022/08/26 03:14:46;;;;;;;;;11.80;11.60;;;;;24.92;53.52;101139.78;2113815;27;47890;-53
2022/08/26 03:15:47;;;;;;;;;12.40;11.20;;;;;24.91;53.86;101140.75;2112653;27;47851;-52
2022/08/26 03:16:49;;;;;;;;;11.75;11.75;;;;;24.90;53.71;101144.47;2112388;27;47625;-50
2022/08/26 03:17:50;;;;;;;;;11.80;11.60;;;;;24.90;53.99;101143.56;2105016;28;47790;-52
2022/08/26 03:18:50;;;;;;;;;8.00;8.00;;;;;24.91;53.60;101145.31;2096918;28;47659;-53
2022/08/26 03:19:51;;;;;;;;;12.00;12.00;;;;;24.90;54.08;101140.84;2096548;28;47698;-49
2022/08/26 03:20:51;;;;;;;;;10.00;10.00;;;;;24.90;53.82;101140.84;2113247;27;47346;-54
2022/08/26 03:21:52;;;;;;;;;10.50;10.50;;;;;24.90;54.16;101139.03;2111556;27;48240;-51
2022/08/26 03:22:54;;;;;;;;;12.60;12.20;;;;;24.91;53.46;101145.31;2078300;28;48061;-50
2022/08/26 03:23:55;;;;;;;;;12.00;11.40;;;;;24.91;54.13;101146.19;2085976;27;47776;-53
2022/08/26 03:24:55;;;;;;;;;10.50;9.00;;;;;24.91;53.98;101143.47;2112791;27;47583;-52
2022/08/26 03:25:55;;;;;;;;;10.50;10.50;;;;;24.92;53.89;101139.78;2105202;28;47488;-48
2022/08/26 03:26:56;;;;;;;;;9.75;9.75;;;;;24.93;53.58;101144.22;2110133;27;45849;-51
2022/08/26 03:27:56;;;;;;;;;10.75;10.50;;;;;24.94;53.41;101145.97;2113855;27;47693;-53
2022/08/26 03:31:35;;;;;;;;;15.00;14.60;;;;;24.95;53.82;101133.25;2105911;27;47916;-51
2022/08/26 03:32:35;;;;;;;;;10.75;10.75;;;;;24.95;53.54;101141.38;2105143;28;47626;-51
2022/08/26 03:33:36;;;;;;;;;8.00;8.00;;;;;24.93;53.86;101138.78;2111490;27;47434;-52
2022/08/26 03:34:36;;;;;;;;;12.00;12.00;;;;;24.94;53.70;101145.97;2112951;27;47963;-53
2022/08/26 03:35:39;;;;;;;;;11.00;11.00;;;;;24.94;53.30;101145.09;2105137;28;47168;-50
2022/08/26 03:36:40;;;;;;;;;10.00;10.00;;;;;24.95;53.64;101144.09;2106039;27;48078;-50
2022/08/26 03:37:40;;;;;;;;;10.75;10.75;;;;;24.95;53.57;101139.53;2104988;27;47331;-51
2022/08/26 03:38:41;;;;;;;;;11.50;10.75;;;;;24.97;53.82;101143.97;2105947;27;47661;-52
2022/08/26 03:39:41;;;;;;;;;7.50;7.50;;;;;24.97;53.71;101142.13;2099572;28;47414;-52
2022/08/26 03:40:42;;;;;;;;;13.25;12.00;;;;;24.98;53.61;101140.28;2100347;28;48069;-50
2022/08/26 03:41:46;;;;;;;;;12.00;12.00;;;;;24.99;54.02;101139.31;2111797;27;47596;-52
2022/08/26 03:42:47;;;;;;;;;11.00;11.00;;;;;24.98;53.85;101143.00;2111860;27;47901;-53
2022/08/26 03:43:49;;;;;;;;;9.40;9.40;;;;;24.96;53.86;101134.97;2095671;28;47980;-51
2022/08/26 03:44:50;;;;;;;;;11.40;11.40;;;;;24.98;53.98;101141.16;2097196;28;47446;-54
2022/08/26 03:45:50;;;;;;;;;15.75;13.75;;;;;24.98;53.74;101143.00;2105752;27;47407;-53
2022/08/26 03:46:52;;;;;;;;;14.00;12.00;;;;;24.95;53.62;101139.53;2113474;27;47364;-52
2022/08/26 03:47:53;;;;;;;;;10.00;10.00;;;;;24.95;53.58;101141.38;2116708;27;47575;-52
2022/08/26 03:48:53;;;;;;;;;13.50;12.50;;;;;24.94;53.75;101140.53;2112757;27;47015;-54
2022/08/26 03:49:55;;;;;;;;;11.75;11.75;;;;;24.94;53.48;101142.38;2103838;28;46941;-51
2022/08/26 03:50:56;;;;;;;;;12.80;12.60;;;;;24.93;53.74;101146.06;2104549;28;47576;-51
2022/08/26 03:51:56;;;;;;;;;12.00;12.00;;;;;24.94;53.86;101140.53;2096075;28;47007;-50
2022/08/26 03:52:56;;;;;;;;;10.50;10.50;;;;;24.95;53.72;101144.97;2094764;28;47785;-50
2022/08/26 03:53:59;;;;;;;;;15.00;15.00;;;;;24.94;53.66;101139.66;2095148;28;47422;-50
2022/08/26 03:54:59;;;;;;;;;14.20;13.00;;;;;24.94;53.89;101137.81;2095872;28;47511;-50
2022/08/26 03:56:00;;;;;;;;;13.25;13.25;;;;;24.94;54.15;101140.53;2106408;27;47877;-54
2022/08/26 03:57:00;;;;;;;;;13.25;13.25;;;;;24.91;53.77;101142.63;2105013;28;47585;-53
2022/08/26 03:58:01;;;;;;;;;13.25;13.25;;;;;24.87;53.99;101136.53;2106636;27;47762;-52
2022/08/26 03:59:02;;;;;;;;;16.50;15.25;;;;;24.85;53.90;101133.06;2106483;27;47772;-52
2022/08/26 04:00:07;;;;;;;;;12.80;11.80;;;;;24.82;53.84;101133.28;2113179;27;47477;-52
2022/08/26 04:01:07;;;;;;;;;11.60;10.40;;;;;24.82;54.00;101138.72;2109106;27;47461;-53
2022/08/26 04:02:08;;;;;;;;;9.50;9.50;;;;;24.82;54.14;101143.28;2096337;28;46401;-52
2022/08/26 04:03:10;;;;;;;;;14.00;14.00;;;;;24.83;53.97;101135.03;2104150;28;47605;-50
2022/08/26 04:04:10;;;;;;;;;15.40;15.40;;;;;24.82;53.75;101144.16;2112859;27;47616;-52
2022/08/26 04:05:13;;;;;;;;;16.25;13.50;;;;;24.80;53.81;101135.25;2113050;27;47313;-51
2022/08/26 04:06:13;;;;;;;;;12.00;12.00;;;;;24.81;54.39;101141.56;2113140;27;47625;-52
2022/08/26 04:07:14;;;;;;;;;11.50;11.50;;;;;24.81;54.18;101142.41;2103297;28;47574;-54
2022/08/26 04:08:14;;;;;;;;;7.50;7.50;;;;;24.82;54.51;101141.44;2095890;28;48018;-53
2022/08/26 04:09:19;;;;;;;;;13.50;12.50;;;;;24.83;54.12;101145.03;2106385;27;47062;-52
2022/08/26 04:10:26;;;;;;;;;14.40;13.40;;;;;24.85;54.49;101140.34;2096017;28;47196;-51
2022/08/26 04:11:30;;;;;;;;;14.20;14.20;;;;;24.85;54.03;101143.91;2088084;28;47672;-51
2022/08/26 04:12:30;;;;;;;;;14.00;13.20;;;;;24.84;54.26;101142.19;2104025;27;48170;-54
2022/08/26 04:13:31;;;;;;;;;13.75;13.00;;;;;24.84;54.45;101147.63;2105838;27;47417;-50
2022/08/26 04:14:34;;;;;;;;;10.80;10.80;;;;;24.85;54.00;101146.63;2105138;27;45985;-49
2022/08/26 04:15:34;;;;;;;;;15.80;15.40;;;;;24.85;54.07;101143.91;2109663;27;45702;-52
2022/08/26 04:16:34;;;;;;;;;12.50;12.50;;;;;24.84;53.86;101147.63;2113313;27;47658;-53
2022/08/26 04:17:35;;;;;;;;;15.50;15.50;;;;;24.84;54.39;101146.75;2095715;28;47702;-53
2022/08/26 04:18:36;;;;;;;;;14.00;14.00;;;;;24.85;54.38;101137.63;2088649;28;47586;-54
2022/08/26 04:19:37;;;;;;;;;13.20;12.60;;;;;24.85;54.46;101138.50;2095928;28;47481;-52
2022/08/26 04:20:38;;;;;;;;;15.25;14.00;;;;;24.84;54.42;101142.19;2105992;27;46956;-51
2022/08/26 04:21:40;;;;;;;;;16.00;15.50;;;;;24.84;54.11;101136.75;2096898;28;47707;-49
2022/08/26 04:22:41;;;;;;;;;14.20;13.20;;;;;24.85;54.03;101141.19;2095814;28;47175;-51
2022/08/26 04:23:41;;;;;;;;;15.40;14.60;;;;;24.86;54.29;101139.34;2100168;27;47695;-53
2022/08/26 04:24:42;;;;;;;;;14.75;13.00;;;;;24.85;54.42;101137.63;2113286;27;47986;-51
2022/08/26 04:25:42;;;;;;;;;13.00;12.00;;;;;24.83;54.05;101145.88;2105881;27;47653;-55
2022/08/26 04:26:42;;;;;;;;;16.50;16.50;;;;;24.83;54.22;101142.31;2105844;27;47404;-51
2022/08/26 04:27:43;;;;;;;;;14.75;14.00;;;;;24.81;54.27;101142.41;2104339;28;47879;-50
2022/08/26 04:28:43;;;;;;;;;16.25;15.25;;;;;24.81;54.45;101141.56;2105997;27;47161;-54
2022/08/26 04:29:45;;;;;;;;;12.50;12.50;;;;;24.80;54.60;101148.84;2105635;27;47454;-53
2022/08/26 04:30:45;;;;;;;;;14.00;13.40;;;;;24.81;54.62;101138.84;2104647;28;47862;-53
2022/08/26 04:31:49;;;;;;;;;15.75;15.25;;;;;24.81;54.07;101145.13;2105518;27;47336;-52
2022/08/26 04:32:49;;;;;;;;;13.80;13.80;;;;;24.79;54.32;101147.09;2094647;28;47816;-53
2022/08/26 04:33:50;;;;;;;;;15.00;14.75;;;;;24.80;54.44;101146.13;2096007;28;47696;-49
2022/08/26 04:34:50;;;;;;;;;13.50;13.50;;;;;24.79;54.39;101149.81;2105455;27;48268;-52
2022/08/26 04:36:02;;;;;;;;;19.25;18.75;;;;;24.79;54.52;101147.09;2104652;28;47454;-52
2022/08/26 04:37:04;;;;;;;;;16.40;16.40;;;;;24.80;54.61;101156.97;2105395;27;47541;-52
2022/08/26 04:38:04;;;;;;;;;16.00;14.00;;;;;24.78;54.26;101155.38;2105428;27;47539;-50
2022/08/26 04:39:05;;;;;;;;;17.00;16.50;;;;;24.74;54.26;101148.41;2095864;28;47228;-51
2022/08/26 04:40:08;;;;;;;;;14.60;13.60;;;;;24.71;54.63;101154.06;2096823;28;48132;-52
2022/08/26 04:41:12;;;;;;;;;17.00;16.80;;;;;24.68;54.89;101155.19;2105577;27;47600;-53
2022/08/26 04:42:13;;;;;;;;;17.60;16.40;;;;;24.65;54.13;101158.13;2104420;28;47632;-52
2022/08/26 04:43:14;;;;;;;;;21.00;18.40;;;;;24.60;54.58;101152.16;2105338;27;47735;-51
2022/08/26 04:44:15;;;;;;;;;15.75;14.75;;;;;24.57;54.99;101161.38;2105041;27;47516;-51
2022/08/26 04:45:15;;;;;;;;;12.80;12.80;;;;;24.55;55.11;101154.34;2105096;27;47869;-51
2022/08/26 04:46:18;;;;;;;;;18.75;18.75;;;;;24.55;54.63;101157.91;2105553;27;47033;-51
2022/08/26 04:47:19;;;;;;;;;18.40;17.00;;;;;24.52;55.13;101160.88;2104383;28;47782;-52
2022/08/26 04:48:19;;;;;;;;;22.50;20.75;;;;;24.50;54.88;101164.66;2111729;27;47566;-49
2022/08/26 04:49:20;;;;;;;;;17.00;15.50;;;;;24.46;55.33;101166.72;2111641;27;47918;-53
2022/08/26 04:50:22;;;;;;;;;17.00;15.75;;;;;24.43;55.15;101160.66;2104177;28;47401;-52